Time;durP1;ratioP1;P1;durP2;ratioP2;P2;SDS_P1;SDS_P2;PMS_P1;PMS_P2;Temp;Humidity;BMP_temperature;BMP_pressure;BME280_temperature;BME280_humidity;BME280_pressure;Samples;Min_cycle;Max_cycle;Signal;HPM_P1;HPM_P2
2021/08/04 00:02:08;;;;;;;0.30;0.30;;;;;;;14.74;63.80;100064.25;4915653;29;20394;-74
2021/08/04 00:04:33;;;;;;;0.45;0.30;;;;;;;14.78;63.93;100070.78;4922887;29;20127;-73
2021/08/04 00:06:59;;;;;;;0.30;0.30;;;;;;;14.80;63.65;100063.03;4923983;29;20036;-73
2021/08/04 00:09:24;;;;;;;0.40;0.40;;;;;;;14.80;63.83;100063.03;4939764;29;20024;-73
2021/08/04 00:11:50;;;;;;;0.30;0.30;;;;;;;14.82;63.51;100066.31;4904123;28;20090;-71
2021/08/04 00:14:15;;;;;;;0.50;0.50;;;;;;;14.80;63.43;100073.25;4942525;29;20533;-73
2021/08/04 00:16:41;;;;;;;1.17;1.17;;;;;;;14.76;63.61;100063.94;4921759;29;20486;-74
2021/08/04 00:19:07;;;;;;;1.23;1.20;;;;;;;14.72;64.12;100060.16;4930373;29;20052;-76
2021/08/04 00:21:32;;;;;;;0.77;0.77;;;;;;;14.66;64.09;100067.72;4917956;29;20024;-76
2021/08/04 00:23:58;;;;;;;0.70;0.70;;;;;;;14.64;63.88;100069.94;4946785;29;20043;-77
2021/08/04 00:26:29;;;;;;;0.60;0.60;;;;;;;14.61;64.47;100070.53;4924598;29;20122;-74
2021/08/04 00:28:55;;;;;;;0.60;0.60;;;;;;;14.59;64.30;100072.78;4953998;29;20114;-78
2021/08/04 00:31:21;;;;;;;0.70;0.65;;;;;;;14.52;64.15;100062.13;4903569;29;20050;-75
2021/08/04 00:33:47;;;;;;;0.40;0.40;;;;;;;14.50;64.60;100058.88;4915475;29;20094;-77
2021/08/04 00:36:13;;;;;;;0.60;0.60;;;;;;;14.51;64.72;100065.19;4905942;29;20032;-76
2021/08/04 00:38:38;;;;;;;1.88;0.90;;;;;;;14.48;64.76;100072.09;4900743;29;20039;-77
2021/08/04 00:41:04;;;;;;;1.00;0.90;;;;;;;14.46;64.77;100071.59;4930903;29;20099;-75
2021/08/04 00:43:30;;;;;;;0.90;0.90;;;;;;;14.38;64.93;100062.09;4915124;29;20039;-75
2021/08/04 00:45:56;;;;;;;1.15;1.15;;;;;;;14.35;65.33;100076.44;4895528;29;20039;-77
2021/08/04 00:48:22;;;;;;;1.23;1.23;;;;;;;14.27;65.03;100072.44;4915928;29;20052;-75
2021/08/04 00:50:48;;;;;;;0.88;0.88;;;;;;;14.26;65.29;100070.00;4928493;29;20047;-76
2021/08/04 00:53:25;;;;;;;0.80;0.80;;;;;;;14.23;65.75;100074.16;4928614;29;20062;-74
2021/08/04 00:55:53;;;;;;;1.42;1.33;;;;;;;14.20;65.21;100071.19;4952973;29;20061;-75
2021/08/04 00:58:28;;;;;;;1.33;1.27;;;;;;;14.11;65.92;100063.63;4930123;29;20062;-74
2021/08/04 01:01:03;;;;;;;1.77;1.50;;;;;;;14.06;65.56;100060.97;4926510;29;20044;-74
2021/08/04 01:03:35;;;;;;;1.10;1.08;;;;;;;13.99;66.46;100055.00;4928328;29;20103;-76
2021/08/04 01:06:05;;;;;;;1.65;0.90;;;;;;;13.99;65.99;100060.50;4926781;29;20512;-75
2021/08/04 01:08:34;;;;;;;1.13;1.13;;;;;;;13.93;66.63;100058.94;4922268;29;20028;-74
2021/08/04 01:11:09;;;;;;;1.40;1.30;;;;;;;13.83;66.70;100045.34;4935046;29;20035;-75
2021/08/04 01:13:46;;;;;;;1.38;1.38;;;;;;;13.85;66.40;100059.63;4928830;29;20035;-76
2021/08/04 01:16:20;;;;;;;1.17;1.17;;;;;;;13.84;67.21;100053.28;4933256;29;20600;-75
2021/08/04 01:18:53;;;;;;;1.40;1.30;;;;;;;13.83;67.30;100053.59;4921660;29;20024;-75
2021/08/04 01:21:25;;;;;;;1.35;1.35;;;;;;;13.74;67.07;100053.44;4922600;29;20458;-75
2021/08/04 01:24:05;;;;;;;1.45;1.35;;;;;;;13.77;66.90;100059.16;4929539;29;20103;-76
2021/08/04 01:26:40;;;;;;;1.70;1.65;;;;;;;13.77;66.77;100053.66;4930024;29;20429;-71
2021/08/04 01:29:13;;;;;;;1.10;1.10;;;;;;;13.74;67.77;100054.28;4943716;29;20031;-73
2021/08/04 01:31:42;;;;;;;1.13;0.90;;;;;;;13.69;67.05;100057.06;4927002;29;20509;-72
2021/08/04 01:34:12;;;;;;;1.20;1.20;;;;;;;13.70;67.41;100046.91;4940238;29;20036;-73
2021/08/04 01:36:39;;;;;;;1.15;1.02;;;;;;;13.70;67.20;100050.47;4910709;29;20032;-73
2021/08/04 01:39:06;;;;;;;1.08;0.88;;;;;;;13.75;67.32;100055.88;4883148;29;20044;-73
2021/08/04 01:41:55;;;;;;;0.57;0.57;;;;;;;13.79;67.13;100056.13;4940350;29;20055;-73
2021/08/04 01:44:35;;;;;;;0.50;0.50;;;;;;;13.79;67.60;100045.94;4940786;29;20031;-72
2021/08/04 01:50:08;;;;;;;0.70;0.70;;;;;;;13.83;66.94;100046.19;4936395;29;20457;-73
2021/08/04 01:52:36;;;;;;;2.58;0.90;;;;;;;13.85;67.14;100041.19;4941978;29;20043;-74
2021/08/04 01:55:07;;;;;;;1.13;1.02;;;;;;;13.85;66.99;100038.44;4905328;29;20044;-75
2021/08/04 01:57:51;;;;;;;0.70;0.70;;;;;;;13.92;67.30;100043.56;4916437;29;20056;-72
2021/08/04 02:00:17;;;;;;;0.52;0.52;;;;;;;13.93;66.63;100034.19;4911135;29;20099;-72
2021/08/04 02:02:43;;;;;;;0.32;0.28;;;;;;;13.97;67.17;100035.22;4921930;29;20040;-71
2021/08/04 02:05:09;;;;;;;0.30;0.30;;;;;;;14.02;66.41;100042.59;4920144;29;20023;-70
2021/08/04 02:08:08;;;;;;;0.30;0.30;;;;;;;14.03;66.82;100038.72;4918154;29;20450;-70
2021/08/04 02:11:14;;;;;;;0.30;0.30;;;;;;;14.13;66.87;100052.31;4927978;29;20035;-73
2021/08/04 02:14:05;;;;;;;0.20;0.20;;;;;;;14.12;66.75;100057.00;4919460;29;20126;-71
2021/08/04 02:16:52;;;;;;;0.20;0.20;;;;;;;14.15;66.47;100050.09;4901106;29;20028;-70
2021/08/04 02:20:09;;;;;;;0.10;0.10;;;;;;;14.22;66.16;100052.44;4918964;29;20076;-72
2021/08/04 02:22:59;;;;;;;0.20;0.20;;;;;;;14.18;66.15;100037.66;4899270;29;20032;-72
2021/08/04 02:26:13;;;;;;;0.60;0.30;;;;;;;14.24;65.93;100044.75;4899386;29;20045;-73
2021/08/04 02:28:52;;;;;;;0.28;0.28;;;;;;;14.24;65.49;100040.03;5211313;23;20507;-74
2021/08/04 02:31:19;;;;;;;0.25;0.25;;;;;;;14.22;66.32;100039.53;4982717;28;20033;-73
2021/08/04 02:33:45;;;;;;;0.10;0.10;;;;;;;14.21;66.04;100051.66;4978494;28;20023;-73
2021/08/04 02:36:12;;;;;;;0.20;0.20;;;;;;;14.20;65.85;100051.94;4975285;28;20034;-74
2021/08/04 02:38:38;;;;;;;0.20;0.20;;;;;;;14.17;65.77;100052.56;4975806;28;20027;-74
2021/08/04 02:41:24;;;;;;;0.40;0.40;;;;;;;14.09;66.57;100049.38;4977192;28;20035;-73
2021/08/04 02:47:51;;;;;;;1.13;1.13;;;;;;;13.99;66.57;100044.03;5808386;23;20062;-72
2021/08/04 02:50:17;;;;;;;1.55;1.45;;;;;;;13.91;66.50;100037.25;4960697;28;20034;-73
2021/08/04 02:52:43;;;;;;;1.40;1.40;;;;;;;13.87;67.34;100038.13;4957024;28;20070;-73
2021/08/04 02:55:42;;;;;;;1.90;1.80;;;;;;;13.76;66.93;100029.25;4957909;28;20031;-75
2021/08/04 02:58:58;;;;;;;1.58;1.48;;;;;;;13.76;67.27;100038.28;4935951;28;20035;-73
2021/08/04 03:02:06;;;;;;;1.48;1.38;;;;;;;13.63;67.62;100030.78;4921307;29;20039;-74
2021/08/04 03:07:38;;;;;;;0.40;0.40;;;;;;;13.60;67.35;100036.88;5463168;23;20086;-73
2021/08/04 03:24:18;;;;;;;0.17;0.17;;;;;;;13.71;67.47;100037.53;4996671;23;20059;-75
2021/08/04 03:27:57;;;;;;;0.30;0.30;;;;;;;13.62;66.82;100023.66;4940399;29;20031;-73
2021/08/04 03:30:52;;;;;;;0.25;0.25;;;;;;;13.73;66.66;100041.63;4882637;29;20406;-75
2021/08/04 03:33:41;;;;;;;0.40;0.40;;;;;;;13.74;67.39;100037.78;4898399;29;20036;-71
2021/08/04 03:36:25;;;;;;;0.25;0.25;;;;;;;13.67;67.49;100037.34;5154825;23;20058;-74
2021/08/04 03:38:50;;;;;;;0.30;0.30;;;;;;;13.57;66.86;100043.78;4991878;28;20057;-72
2021/08/04 03:41:16;;;;;;;0.30;0.30;;;;;;;13.56;67.58;100041.31;4960056;28;20035;-72
2021/08/04 03:43:41;;;;;;;0.40;0.40;;;;;;;13.54;67.23;100044.38;4977275;28;20038;-72
2021/08/04 03:46:07;;;;;;;0.20;0.20;;;;;;;13.55;67.60;100039.69;4999139;28;20026;-73
2021/08/04 03:48:32;;;;;;;0.30;0.30;;;;;;;13.56;66.96;100047.63;4994562;28;20041;-72
2021/08/04 03:50:58;;;;;;;0.20;0.20;;;;;;;13.56;67.25;100046.81;4994321;28;20396;-73
2021/08/04 03:53:23;;;;;;;0.28;0.28;;;;;;;13.54;67.12;100046.31;4998306;28;20030;-73
2021/08/04 03:55:49;;;;;;;0.50;0.50;;;;;;;13.54;67.29;100049.88;4980496;28;20152;-72
2021/08/04 03:58:14;;;;;;;0.65;0.65;;;;;;;13.51;67.61;100055.16;4979084;28;20022;-72
2021/08/04 04:00:40;;;;;;;0.85;0.85;;;;;;;13.49;67.37;100057.34;4961737;28;20035;-72
2021/08/04 04:03:05;;;;;;;0.77;0.77;;;;;;;13.47;67.67;100054.91;4966650;28;20041;-72
2021/08/04 04:05:31;;;;;;;0.68;0.68;;;;;;;13.42;67.80;100050.28;4997151;28;20090;-74
2021/08/04 04:07:56;;;;;;;2.97;0.50;;;;;;;13.35;67.56;100041.59;4994559;28;20074;-73
2021/08/04 04:10:22;;;;;;;0.63;0.63;;;;;;;13.36;67.33;100047.88;4981046;28;20096;-73
2021/08/04 04:12:48;;;;;;;0.80;0.80;;;;;;;13.33;67.92;100048.44;4975723;28;20026;-72
2021/08/04 04:15:13;;;;;;;0.88;0.88;;;;;;;13.30;67.65;100055.34;4977377;28;20491;-73
2021/08/04 04:17:45;;;;;;;0.90;0.90;;;;;;;13.31;68.02;100056.97;5004206;28;20057;-73
2021/08/04 04:26:58;;;;;;;1.10;1.08;;;;;;;13.24;67.91;100067.50;4919765;29;20032;-75
2021/08/04 04:30:01;;;;;;;0.90;0.90;;;;;;;13.24;67.74;100067.50;4922919;29;20052;-74
2021/08/04 04:38:49;;;;;;;;;;;;;;;;;;;;;
2021/08/04 04:44:48;;;;;;;0.30;0.30;;;;;;;13.18;67.63;100046.72;4895389;29;20036;-72
2021/08/04 04:47:36;;;;;;;0.40;0.40;;;;;;;13.28;68.00;100063.06;4886152;29;20563;-74
2021/08/04 04:50:25;;;;;;;;;;;;;;;;;;;;;
2021/08/04 04:56:22;;;;;;;0.10;0.10;;;;;;;13.35;68.03;100060.81;4879076;29;20064;-74
2021/08/04 04:58:50;;;;;;;0.30;0.20;;;;;;;13.42;68.15;100061.28;4936151;29;20071;-73
2021/08/04 05:01:16;;;;;;;0.30;0.30;;;;;;;13.46;67.48;100056.00;4956324;28;20126;-72
2021/08/04 05:03:51;;;;;;;0.10;0.10;;;;;;;13.49;67.52;100057.34;5002364;28;20049;-73
2021/08/04 05:06:50;;;;;;;0.15;0.15;;;;;;;13.59;67.12;100066.28;5019730;28;20042;-74
2021/08/04 05:09:17;;;;;;;1.65;0.20;;;;;;;13.60;67.00;100058.84;5023072;28;20487;-75
2021/08/04 05:11:47;;;;;;;0.20;0.20;;;;;;;13.65;67.77;100060.72;4989791;28;20026;-74
2021/08/04 05:14:15;;;;;;;2.15;0.10;;;;;;;13.71;67.73;100060.34;4985572;28;20155;-73
2021/08/04 05:30:52;;;;;;;0.40;0.30;;;;;;;14.14;67.05;100068.50;4972976;28;20021;-73
2021/08/04 05:33:57;;;;;;;0.22;0.22;;;;;;;14.20;66.38;100071.19;4979212;28;20117;-74
2021/08/04 05:36:36;;;;;;;0.40;0.20;;;;;;;14.21;66.92;100073.66;4977128;28;20027;-75
2021/08/04 05:42:50;;;;;;;0.20;0.20;;;;;;;14.41;66.95;100069.75;4977610;28;20093;-75
2021/08/04 05:45:28;;;;;;;0.32;0.28;;;;;;;14.51;66.54;100078.94;5002179;28;20392;-75
2021/08/04 05:48:35;;;;;;;0.20;0.20;;;;;;;14.67;66.77;100083.09;4984392;28;20101;-74
2021/08/04 05:51:21;;;;;;;0.40;0.40;;;;;;;14.68;66.62;100079.22;4938696;28;20038;-73
2021/08/04 05:53:46;;;;;;;0.20;0.20;;;;;;;14.76;66.26;100084.06;4983205;23;20055;-75
2021/08/04 05:56:12;;;;;;;0.43;0.38;;;;;;;14.82;66.02;100082.00;4949107;29;20030;-72
2021/08/04 05:58:37;;;;;;;0.50;0.50;;;;;;;14.86;65.90;100082.22;4954692;28;20485;-74
2021/08/04 06:01:10;;;;;;;0.60;0.60;;;;;;;14.84;66.02;100080.59;4962392;28;20046;-74
2021/08/04 06:07:25;;;;;;;1.45;1.35;;;;;;;14.95;66.36;100080.41;4956685;28;20070;-72
2021/08/04 06:09:50;;;;;;;1.60;1.50;;;;;;;15.01;66.07;100087.47;4925304;28;20062;-70
2021/08/04 06:12:16;;;;;;;1.45;1.38;;;;;;;14.99;66.37;100084.19;4947495;28;20039;-71
2021/08/04 06:14:42;;;;;;;1.50;1.40;;;;;;;15.04;66.28;100086.00;4952033;28;20038;-71
2021/08/04 06:17:10;;;;;;;1.70;1.60;;;;;;;15.09;66.06;100086.75;4957385;28;20074;-72
2021/08/04 06:20:00;;;;;;;2.33;1.20;;;;;;;15.10;66.55;100088.38;4948411;29;20055;-74
2021/08/04 06:22:52;;;;;;;1.20;1.10;;;;;;;15.14;66.46;100088.56;4957966;28;20077;-75
2021/08/04 06:25:33;;;;;;;0.70;0.70;;;;;;;15.27;66.41;100089.72;4956483;28;20027;-76
2021/08/04 06:28:01;;;;;;;0.75;0.75;;;;;;;15.27;66.55;100087.75;4955841;28;20032;-72
2021/08/04 06:30:30;;;;;;;0.40;0.40;;;;;;;15.31;66.38;100079.72;4906895;29;20028;-73
2021/08/04 06:32:58;;;;;;;0.47;0.47;;;;;;;15.40;66.35;100080.63;4909202;29;20105;-72
2021/08/04 06:38:02;;;;;;;0.43;0.43;;;;;;;15.60;66.08;100095.13;5060759;23;20430;-73
2021/08/04 06:40:28;;;;;;;0.45;0.45;;;;;;;15.68;65.78;100080.59;4965073;28;20042;-73
2021/08/04 06:42:53;;;;;;;0.50;0.50;;;;;;;15.77;65.60;100095.31;4961046;28;20034;-75
2021/08/04 06:45:19;;;;;;;0.82;0.77;;;;;;;15.82;65.94;100091.66;4971120;28;20397;-73
2021/08/04 06:47:44;;;;;;;0.80;0.80;;;;;;;15.86;65.74;100093.47;4974360;28;20042;-74
2021/08/04 06:50:41;;;;;;;0.75;0.75;;;;;;;15.94;65.74;100099.38;4938470;28;20027;-74
2021/08/04 06:53:31;;;;;;;;;;;;;;;16.13;65.29;100097.28;4950533;28;20189;-74
2021/08/04 06:58:59;;;;;;;0.20;0.20;;;;;;;16.26;64.93;100105.81;5103021;23;20055;-73
2021/08/04 07:01:25;;;;;;;0.40;0.40;;;;;;;16.30;64.80;100107.63;4950257;28;20573;-73
2021/08/04 07:03:50;;;;;;;0.50;0.30;;;;;;;16.35;65.06;100106.69;4967786;28;20015;-71
2021/08/04 07:06:16;;;;;;;0.50;0.50;;;;;;;16.40;64.98;100112.09;4949143;28;20043;-70
2021/08/04 07:08:41;;;;;;;0.50;0.50;;;;;;;16.46;64.88;100110.84;4965205;28;20480;-70
2021/08/04 07:11:07;;;;;;;0.50;0.50;;;;;;;16.56;64.44;100110.59;4935627;29;20098;-70
2021/08/04 07:13:33;;;;;;;0.32;0.32;;;;;;;16.69;64.26;100108.91;4937556;29;20564;-73
2021/08/04 07:15:59;;;;;;;0.50;0.50;;;;;;;16.80;64.39;100114.97;4960253;28;20027;-73
2021/08/04 07:18:24;;;;;;;0.32;0.32;;;;;;;16.92;64.04;100106.97;4962268;28;20403;-74
2021/08/04 07:20:50;;;;;;;0.20;0.20;;;;;;;17.05;64.00;100112.72;4927530;29;20042;-72
2021/08/04 07:23:16;;;;;;;0.40;0.40;;;;;;;17.20;63.54;100112.31;4935021;29;20027;-74
2021/08/04 07:25:41;;;;;;;0.35;0.35;;;;;;;17.37;63.56;100116.25;4941428;29;20035;-73
2021/08/04 07:28:07;;;;;;;0.40;0.40;;;;;;;17.50;63.35;100115.31;4941834;28;20050;-73
2021/08/04 07:30:39;;;;;;;1.73;0.70;;;;;;;17.61;62.56;100122.19;4973577;28;20023;-72
2021/08/04 07:39:06;;;;;;;0.40;0.40;;;;;;;18.07;61.88;100122.00;4949058;23;21503;-74
2021/08/04 07:42:00;;;;;;;0.30;0.20;;;;;;;18.16;61.52;100125.56;4969136;28;20065;-73
2021/08/04 07:44:26;;;;;;;;;;;;;;;18.41;61.35;100139.75;4980656;28;20037;-73
2021/08/04 07:46:51;;;;;;;;;;;;;;;18.38;60.12;100134.88;4948295;28;19926;-73
2021/08/04 07:50:02;;;;;;;0.60;0.57;;;;;;;18.26;61.13;100139.09;4955670;28;19918;-74
2021/08/04 07:52:32;;;;;;;0.68;0.68;;;;;;;18.20;60.83;100134.06;4961869;28;20041;-72
2021/08/04 07:55:03;;;;;;;0.50;0.50;;;;;;;18.19;60.62;100138.75;4962251;28;20034;-71
2021/08/04 07:57:29;;;;;;;0.90;0.90;;;;;;;18.15;61.18;100135.03;4957371;28;20022;-73
2021/08/04 07:59:54;;;;;;;1.17;1.00;;;;;;;18.18;61.36;100139.91;4979796;28;20081;-73
2021/08/04 08:02:20;;;;;;;0.65;0.65;;;;;;;18.20;60.95;100143.16;4942200;28;20030;-73
2021/08/04 08:04:45;;;;;;;0.70;0.70;;;;;;;18.22;60.81;100129.81;4971218;28;20043;-73
2021/08/04 08:07:11;;;;;;;0.68;0.68;;;;;;;18.24;61.52;100130.31;4986024;28;20037;-73
2021/08/04 08:09:36;;;;;;;0.45;0.45;;;;;;;18.26;61.22;100141.84;4965286;28;20011;-73
2021/08/04 08:12:03;;;;;;;0.60;0.60;;;;;;;18.26;61.17;100136.31;4976819;28;20031;-73
2021/08/04 08:14:29;;;;;;;0.47;0.47;;;;;;;18.35;61.25;100138.28;4975959;28;20039;-73
2021/08/04 08:16:56;;;;;;;0.30;0.30;;;;;;;18.54;61.38;100140.72;4974640;28;20377;-72
2021/08/04 08:19:22;;;;;;;0.60;0.60;;;;;;;18.73;60.64;100137.63;4973012;28;20041;-73
2021/08/04 08:21:48;;;;;;;1.33;1.30;;;;;;;18.91;60.36;100133.72;4959833;28;20468;-72
2021/08/04 08:24:14;;;;;;;0.82;0.82;;;;;;;19.13;59.76;100140.19;4976734;28;20037;-72
2021/08/04 08:26:39;;;;;;;1.13;1.13;;;;;;;19.28;59.74;100141.59;4962414;28;20027;-72
2021/08/04 08:29:06;;;;;;;1.30;1.27;;;;;;;19.38;59.34;100130.13;4979968;28;20046;-73
2021/08/04 08:31:34;;;;;;;1.25;1.15;;;;;;;19.50;58.91;100132.19;4981036;28;20023;-73
2021/08/04 08:34:00;;;;;;;0.73;0.73;;;;;;;19.60;58.70;100137.38;4959778;28;20023;-73
2021/08/04 08:36:34;;;;;;;1.30;1.20;;;;;;;19.77;58.45;100146.72;4980285;28;20037;-73
2021/08/04 08:39:04;;;;;;;1.05;0.95;;;;;;;19.74;58.34;100136.31;4969818;28;20058;-74
2021/08/04 08:41:30;;;;;;;0.88;0.88;;;;;;;19.81;57.65;100142.19;4975767;28;20026;-73
2021/08/04 08:43:56;;;;;;;0.90;0.90;;;;;;;19.92;57.47;100151.75;4960624;28;20034;-72
2021/08/04 08:46:26;;;;;;;0.93;0.93;;;;;;;20.01;57.52;100146.13;4982045;28;20039;-73
2021/08/04 08:48:51;;;;;;;0.70;0.70;;;;;;;20.12;57.44;100135.44;4954591;28;20050;-73
2021/08/04 08:51:18;;;;;;;1.00;1.00;;;;;;;20.20;56.62;100126.25;4989910;28;20035;-75
2021/08/04 08:53:44;;;;;;;1.17;1.17;;;;;;;20.28;56.67;100128.16;4966037;28;20038;-72
2021/08/04 08:56:14;;;;;;;0.68;0.68;;;;;;;20.36;56.48;100143.09;4973579;28;20019;-74
2021/08/04 08:58:40;;;;;;;0.55;0.55;;;;;;;20.42;56.70;100132.63;4981396;28;20046;-73
2021/08/04 09:01:05;;;;;;;0.65;0.65;;;;;;;20.60;56.14;100136.84;4979997;28;20049;-74
2021/08/04 09:03:31;;;;;;;0.52;0.52;;;;;;;20.75;55.80;100141.00;4964624;28;20093;-73
2021/08/04 09:05:57;;;;;;;1.25;0.93;;;;;;;20.85;55.21;100142.53;4948652;28;20038;-74
2021/08/04 09:08:25;;;;;;;0.73;0.40;;;;;;;20.73;55.31;100138.56;4962122;28;20061;-73
2021/08/04 09:10:51;;;;;;;0.50;0.50;;;;;;;20.77;55.24;100143.44;4970017;28;20050;-72
2021/08/04 09:13:28;;;;;;;0.20;0.20;;;;;;;20.90;54.93;100131.19;4963931;28;20047;-74
2021/08/04 09:16:03;;;;;;;1.00;1.00;;;;;;;20.93;54.88;100119.41;4984408;28;20019;-73
2021/08/04 09:18:44;;;;;;;1.07;1.07;;;;;;;21.01;54.35;100121.28;4972446;28;20022;-72
2021/08/04 09:21:11;;;;;;;0.85;0.85;;;;;;;21.06;54.70;100117.47;4960597;28;20039;-72
2021/08/04 09:23:52;;;;;;;1.40;1.17;;;;;;;21.25;54.25;100125.25;4958475;28;20484;-73
2021/08/04 09:26:24;;;;;;;1.75;0.90;;;;;;;21.33;54.04;100121.53;4963973;28;20046;-74
2021/08/04 09:29:01;;;;;;;0.68;0.50;;;;;;;21.66;53.77;100129.00;4975969;28;20054;-71
2021/08/04 09:31:48;;;;;;;0.68;0.68;;;;;;;21.82;52.90;100133.88;4975272;28;20046;-73
2021/08/04 09:34:37;;;;;;;0.93;0.93;;;;;;;21.72;52.72;100116.47;4977530;28;20030;-74
2021/08/04 09:40:33;;;;;;;1.15;1.08;;;;;;;21.93;51.40;100110.78;4980322;28;20049;-73
2021/08/04 09:42:59;;;;;;;1.60;0.98;;;;;;;22.16;51.52;100115.81;4977393;28;20054;-75
2021/08/04 09:45:42;;;;;;;1.30;1.20;;;;;;;22.43;51.45;100121.81;4968522;28;20030;-73
2021/08/04 09:48:16;;;;;;;1.65;1.55;;;;;;;22.55;49.79;100123.75;4969194;28;20030;-74
2021/08/04 09:50:55;;;;;;;1.98;1.80;;;;;;;22.64;48.97;100127.19;4987941;28;20019;-74
2021/08/04 09:53:29;;;;;;;1.45;1.38;;;;;;;22.67;48.95;100130.03;4957543;28;20035;-76
2021/08/04 09:56:14;;;;;;;1.52;1.42;;;;;;;22.82;49.03;100136.84;4957931;28;20026;-74
2021/08/04 09:58:53;;;;;;;1.38;1.27;;;;;;;22.84;48.90;100126.13;4967241;28;20031;-75
2021/08/04 10:01:22;;;;;;;0.70;0.70;;;;;;;23.02;48.88;100126.59;4952836;28;21977;-74
2021/08/04 10:04:13;;;;;;;1.70;1.60;;;;;;;23.23;47.46;100113.63;4984607;28;20030;-74
2021/08/04 10:06:41;;;;;;;1.75;1.65;;;;;;;23.42;46.85;100132.41;4980451;28;20034;-73
2021/08/04 10:09:09;;;;;;;0.70;0.70;;;;;;;23.74;48.51;100112.84;4960697;28;20037;-74
2021/08/04 10:11:42;;;;;;;0.60;0.60;;;;;;;24.33;48.21;100120.19;4977004;28;20113;-75
2021/08/04 10:14:08;;;;;;;0.90;0.90;;;;;;;24.87;46.27;100126.88;4963819;28;20421;-74
2021/08/04 10:16:39;;;;;;;1.35;1.35;;;;;;;25.01;44.21;100119.91;4978025;28;20034;-73
2021/08/04 10:19:07;;;;;;;1.40;1.40;;;;;;;25.27;43.78;100117.19;4980807;28;20161;-75
2021/08/04 10:21:41;;;;;;;0.80;0.80;;;;;;;25.61;44.37;100120.19;4964697;28;20438;-75
2021/08/04 10:24:07;;;;;;;0.68;0.68;;;;;;;26.22;44.57;100113.84;4982604;28;20035;-74
2021/08/04 10:26:35;;;;;;;0.50;0.50;;;;;;;26.99;44.65;100115.16;4964872;28;20035;-74
2021/08/04 10:29:01;;;;;;;1.50;1.20;;;;;;;27.60;42.04;100112.09;4981571;28;20493;-76
2021/08/04 10:31:27;;;;;;;0.63;0.63;;;;;;;27.85;42.00;100115.06;4967810;28;20118;-74
2021/08/04 10:33:55;;;;;;;0.70;0.70;;;;;;;28.32;41.01;100112.53;4981253;28;20050;-73
2021/08/04 10:36:32;;;;;;;1.25;0.82;;;;;;;29.05;40.07;100105.13;4980048;28;20111;-74
2021/08/04 10:39:08;;;;;;;0.55;0.55;;;;;;;29.82;39.22;100103.91;4979978;28;20019;-72
2021/08/04 10:41:36;;;;;;;0.50;0.50;;;;;;;30.57;38.69;100108.53;4986206;28;20046;-74
2021/08/04 10:44:20;;;;;;;0.50;0.50;;;;;;;31.33;37.89;100106.81;4965862;28;20034;-74
2021/08/04 10:46:45;;;;;;;0.70;0.70;;;;;;;32.01;35.99;100113.06;4976438;28;20102;-72
2021/08/04 10:49:11;;;;;;;0.50;0.50;;;;;;;32.44;34.17;100120.25;4989499;28;20029;-71
2021/08/04 10:52:01;;;;;;;0.50;0.50;;;;;;;32.74;34.05;100121.47;4989557;28;20033;-72
2021/08/04 10:54:30;;;;;;;0.45;0.45;;;;;;;33.40;32.73;100115.22;4979279;28;20063;-73
2021/08/04 10:56:56;;;;;;;0.75;0.50;;;;;;;34.05;31.52;100124.59;4981058;28;20018;-73
2021/08/04 10:59:27;;;;;;;0.45;0.45;;;;;;;34.77;30.85;100120.28;4975027;28;20081;-73
2021/08/04 11:01:55;;;;;;;0.32;0.32;;;;;;;35.53;30.68;100122.13;4981385;28;20041;-76
2021/08/04 11:04:30;;;;;;;0.47;0.47;;;;;;;36.32;28.87;100122.06;4977122;28;20366;-73
2021/08/04 11:07:16;;;;;;;;;;;;;;;37.07;28.90;100115.31;4989176;28;20041;-74
2021/08/04 11:09:44;;;;;;;0.77;0.40;;;;;;;37.17;27.26;100109.22;4950745;28;19918;-74
2021/08/04 11:12:15;;;;;;;0.40;0.40;;;;;;;37.91;27.89;100114.91;4960654;28;20034;-73
2021/08/04 11:15:00;;;;;;;0.30;0.30;;;;;;;38.85;26.77;100108.53;4950331;28;20035;-73
2021/08/04 11:17:29;;;;;;;0.70;0.50;;;;;;;39.43;25.33;100107.75;4976968;28;20019;-74
2021/08/04 11:20:08;;;;;;;0.40;0.40;;;;;;;40.04;24.42;100107.19;4972081;28;20034;-73
2021/08/04 11:22:39;;;;;;;0.47;0.35;;;;;;;40.76;23.48;100109.56;4974059;28;20034;-74
2021/08/04 11:25:41;;;;;;;0.75;0.50;;;;;;;41.56;23.66;100111.38;4970491;28;20034;-74
2021/08/04 11:28:11;;;;;;;0.30;0.30;;;;;;;42.23;22.32;100116.88;4976334;28;20019;-72
2021/08/04 11:30:46;;;;;;;0.30;0.30;;;;;;;42.84;21.73;100114.28;4962843;28;20030;-74
2021/08/04 11:33:17;;;;;;;0.40;0.40;;;;;;;43.44;21.12;100096.84;4977582;28;20056;-74
2021/08/04 11:35:43;;;;;;;0.20;0.20;;;;;;;43.96;20.92;100099.03;4964339;28;20421;-75
2021/08/04 11:38:12;;;;;;;2.15;0.20;;;;;;;44.50;19.95;100104.28;4976851;28;20031;-75
2021/08/04 11:40:40;;;;;;;0.55;0.30;;;;;;;45.01;19.42;100106.75;4966554;28;20061;-75
2021/08/04 11:43:05;;;;;;;0.40;0.25;;;;;;;45.52;18.42;100104.97;4960728;28;20027;-73
2021/08/04 11:45:30;;;;;;;0.13;0.13;;;;;;;45.78;18.40;100106.88;4988642;28;20086;-74
2021/08/04 11:47:56;;;;;;;1.17;0.47;;;;;;;45.84;16.91;100099.06;4977553;28;20046;-75
2021/08/04 11:50:21;;;;;;;0.30;0.20;;;;;;;46.17;17.52;100111.97;4959594;28;20023;-75
2021/08/04 11:52:48;;;;;;;0.40;0.40;;;;;;;46.47;16.67;100112.25;4977705;28;20472;-75
2021/08/04 11:55:15;;;;;;;0.40;0.40;;;;;;;46.63;16.08;100101.22;4961246;28;20034;-74
2021/08/04 11:57:46;;;;;;;0.22;0.22;;;;;;;47.15;15.94;100099.84;4975453;28;20022;-74
2021/08/04 12:00:17;;;;;;;0.22;0.22;;;;;;;47.75;15.33;100098.56;4969236;28;20018;-75
2021/08/04 12:02:47;;;;;;;0.22;0.22;;;;;;;47.94;14.63;100092.91;4972554;28;20054;-74
2021/08/04 12:05:15;;;;;;;0.20;0.20;;;;;;;47.49;14.77;100099.72;4953909;28;20031;-74
2021/08/04 12:07:44;;;;;;;0.30;0.30;;;;;;;46.64;14.65;100097.03;4982348;28;20023;-73
2021/08/04 12:10:15;;;;;;;0.30;0.30;;;;;;;46.62;14.66;100100.44;4985337;28;20026;-74
2021/08/04 12:12:48;;;;;;;0.40;0.20;;;;;;;47.14;14.54;100086.69;4964666;28;20030;-74
2021/08/04 12:15:21;;;;;;;0.32;0.32;;;;;;;46.98;14.06;100092.00;4979131;28;20023;-72
2021/08/04 12:17:48;;;;;;;0.30;0.30;;;;;;;45.53;13.62;100089.22;4960220;28;20106;-72
2021/08/04 12:20:15;;;;;;;0.22;0.22;;;;;;;45.18;14.50;100081.69;4973222;28;20486;-74
2021/08/04 12:22:42;;;;;;;0.30;0.30;;;;;;;45.79;14.05;100088.25;4978293;28;20049;-75
2021/08/04 12:25:12;;;;;;;0.30;0.30;;;;;;;45.65;13.35;100076.41;4953158;28;20034;-74
2021/08/04 12:27:44;;;;;;;0.50;0.30;;;;;;;44.37;13.60;100073.00;4965785;28;20058;-73
2021/08/04 12:30:22;;;;;;;0.20;0.20;;;;;;;42.75;14.14;100071.28;4979272;28;20481;-74
2021/08/04 12:32:50;;;;;;;0.20;0.20;;;;;;;41.02;14.96;100062.47;4970584;28;20089;-73
2021/08/04 12:35:22;;;;;;;0.30;0.30;;;;;;;39.50;15.66;100057.22;4986788;28;20117;-74
2021/08/04 12:37:48;;;;;;;0.45;0.20;;;;;;;38.17;16.73;100049.13;4969520;28;20031;-74
2021/08/04 12:40:14;;;;;;;0.30;0.30;;;;;;;37.18;17.36;100044.50;4943087;28;20142;-73
2021/08/04 12:42:41;;;;;;;0.40;0.35;;;;;;;36.19;18.13;100042.31;4953801;28;20561;-74
2021/08/04 12:45:28;;;;;;;0.40;0.40;;;;;;;35.07;18.68;100042.47;4955565;28;20066;-75
2021/08/04 12:47:59;;;;;;;0.30;0.30;;;;;;;34.38;19.93;100036.81;4964402;28;20066;-74
2021/08/04 12:50:31;;;;;;;1.67;0.40;;;;;;;33.73;20.00;100023.91;4959998;28;20045;-75
2021/08/04 12:52:59;;;;;;;0.40;0.40;;;;;;;33.26;20.60;100036.13;4992350;28;20105;-73
2021/08/04 12:55:26;;;;;;;0.90;0.77;;;;;;;32.71;20.95;100018.44;4966440;28;20075;-73
2021/08/04 12:58:06;;;;;;;3.10;0.63;;;;;;;32.26;22.02;100030.75;4945223;28;20042;-74
2021/08/04 13:00:36;;;;;;;1.10;1.08;;;;;;;31.67;22.78;100027.00;4946661;28;20474;-73
2021/08/04 13:03:06;;;;;;;0.60;0.60;;;;;;;31.18;22.97;100029.09;4967747;28;20034;-74
2021/08/04 13:05:38;;;;;;;2.15;0.85;;;;;;;30.72;24.52;100024.59;4948137;28;20027;-74
2021/08/04 13:08:07;;;;;;;0.75;0.75;;;;;;;30.26;24.54;100026.47;4985180;28;20097;-73
2021/08/04 13:10:41;;;;;;;0.93;0.93;;;;;;;29.80;24.44;100027.44;4981450;28;20431;-73
2021/08/04 13:13:10;;;;;;;6.13;0.60;;;;;;;29.50;24.74;100015.44;4935643;28;20050;-74
2021/08/04 13:15:53;;;;;;;0.38;0.38;;;;;;;29.48;25.26;100022.69;4975114;28;20035;-74